Time;durP1;ratioP1;P1;durP2;ratioP2;P2;SDS_P1;SDS_P2;PMS_P1;PMS_P2;Temp;Humidity;BMP_temperature;BMP_pressure;BME280_temperature;BME280_humidity;BME280_pressure;Samples;Min_cycle;Max_cycle;Signal;HPM_P1;HPM_P2
2023/09/06 00:01:33;;;;;;;4.60;4.20;;;;;;;15.65;89.64;101039.16;88433;276;136839;-61
2023/09/06 00:03:37;;;;;;;3.80;3.20;;;;;;;15.63;89.75;101042.27;88562;272;22520;-65
2023/09/06 00:05:41;;;;;;;3.30;2.90;;;;;;;15.60;90.03;101044.20;88883;273;136993;-68
2023/09/06 00:07:44;;;;;;;3.20;2.90;;;;;;;15.55;90.42;101044.11;88686;280;22530;-66
2023/09/06 00:09:46;;;;;;;3.40;3.10;;;;;;;15.51;90.88;101045.49;88403;276;136851;-64
2023/09/06 00:11:48;;;;;;;3.60;3.30;;;;;;;15.53;90.51;101043.08;88452;276;25956;-66
2023/09/06 00:13:50;;;;;;;4.50;3.90;;;;;;;15.52;90.22;101043.60;88436;279;137112;-67
2023/09/06 00:15:52;;;;;;;3.50;3.20;;;;;;;15.53;89.96;101046.16;88724;279;22533;-63
2023/09/06 00:17:54;;;;;;;3.70;3.40;;;;;;;15.52;90.17;101043.98;88430;280;137008;-65
2023/09/06 00:19:56;;;;;;;3.90;3.10;;;;;;;15.51;90.09;101045.17;88471;280;25150;-65
2023/09/06 00:21:59;;;;;;;3.90;3.70;;;;;;;15.44;90.27;101040.24;88441;276;137838;-64
2023/09/06 00:24:00;;;;;;;4.90;3.70;;;;;;;15.43;90.60;101038.27;88629;272;22528;-64
2023/09/06 00:26:03;;;;;;;4.00;3.50;;;;;;;15.35;90.92;101035.27;88601;272;136660;-64
2023/09/06 00:28:06;;;;;;;3.30;3.10;;;;;;;15.33;90.77;101037.28;88369;280;140265;-64
2023/09/06 00:30:08;;;;;;;3.60;3.20;;;;;;;15.29;90.65;101037.89;88599;280;22781;-64
2023/09/06 00:32:10;;;;;;;5.40;3.30;;;;;;;15.20;90.36;101035.59;88660;273;137314;-65
2023/09/06 00:34:14;;;;;;;5.50;3.70;;;;;;;15.17;90.70;101036.91;88930;276;22611;-66
2023/09/06 00:36:16;;;;;;;4.60;3.60;;;;;;;15.13;91.55;101035.95;88736;280;137080;-65
2023/09/06 00:38:18;;;;;;;4.40;4.00;;;;;;;15.18;91.25;101036.91;88451;273;25077;-66
2023/09/06 00:40:22;;;;;;;4.60;4.20;;;;;;;15.13;91.31;101034.41;88420;280;138482;-65
2023/09/06 00:42:26;;;;;;;4.50;3.60;;;;;;;15.03;91.76;101034.21;88561;280;25233;-66
2023/09/06 00:44:28;;;;;;;5.10;3.80;;;;;;;14.98;92.09;101035.27;88623;273;136686;-67
2023/09/06 00:46:30;;;;;;;5.20;3.50;;;;;;;14.96;92.24;101042.11;88713;273;24015;-65
2023/09/06 00:48:34;;;;;;;3.60;3.30;;;;;;;14.95;92.15;101043.71;88463;272;136935;-64
2023/09/06 00:50:37;;;;;;;4.10;3.40;;;;;;;14.92;92.37;101046.06;88628;273;26302;-63
2023/09/06 00:52:40;;;;;;;5.00;3.60;;;;;;;14.90;92.58;101049.39;88428;280;136869;-67
2023/09/06 00:54:42;;;;;;;3.80;3.40;;;;;;;14.89;92.85;101045.42;88585;273;24982;-68
2023/09/06 00:56:44;;;;;;;5.90;4.10;;;;;;;14.89;93.00;101048.41;88366;280;137023;-65
2023/09/06 00:58:46;;;;;;;3.80;3.30;;;;;;;14.93;92.54;101045.90;88468;274;25242;-66
2023/09/06 01:00:49;;;;;;;3.20;2.90;;;;;;;14.96;92.15;101041.95;88443;272;139023;-67
2023/09/06 01:02:51;;;;;;;6.50;3.30;;;;;;;14.96;92.08;101043.39;88623;276;25026;-65
2023/09/06 01:04:54;;;;;;;5.60;3.50;;;;;;;14.97;91.70;101043.81;88887;276;138203;-66
2023/09/06 01:07:01;;;;;;;3.30;3.10;;;;;;;15.00;90.97;101044.11;88693;273;23862;-65
2023/09/06 01:09:05;;;;;;;3.80;3.40;;;;;;;14.99;90.54;101041.75;88654;272;136817;-65
2023/09/06 01:11:19;;;;;;;3.60;3.30;;;;;;;14.96;90.59;101044.77;88726;276;25077;-65
2023/09/06 01:13:24;;;;;;;4.10;3.70;;;;;;;14.95;90.28;101041.52;88611;276;136984;-66
2023/09/06 01:15:28;;;;;;;4.40;3.90;;;;;;;14.95;90.16;101041.16;88714;279;24015;-62
2023/09/06 01:17:33;;;;;;;3.90;3.50;;;;;;;14.92;90.06;101042.64;88621;276;138388;-66
2023/09/06 01:19:39;;;;;;;3.90;3.50;;;;;;;14.89;89.94;101042.53;88893;272;25165;-67
2023/09/06 01:21:49;;;;;;;4.80;3.90;;;;;;;14.89;89.95;101041.84;88620;272;137079;-66
2023/09/06 01:23:53;;;;;;;4.00;3.30;;;;;;;14.84;90.24;101043.34;88650;273;23004;-66
2023/09/06 01:25:55;;;;;;;4.60;4.20;;;;;;;14.84;90.15;101042.91;88507;273;136882;-69
2023/09/06 01:27:58;;;;;;;6.90;4.70;;;;;;;14.83;90.12;101040.94;88684;273;25495;-66
2023/09/06 01:30:00;;;;;;;4.40;4.00;;;;;;;14.87;89.68;101040.34;88667;273;138795;-67
2023/09/06 01:32:05;;;;;;;4.30;3.80;;;;;;;14.88;89.49;101040.67;88508;281;22561;-65
2023/09/06 01:34:07;;;;;;;4.20;3.80;;;;;;;14.83;89.46;101036.02;88893;279;22524;-65
2023/09/06 01:36:09;;;;;;;4.50;4.00;;;;;;;14.80;89.91;101035.52;88630;279;137169;-66
2023/09/06 01:38:11;;;;;;;4.50;4.00;;;;;;;14.76;90.35;101037.96;88689;276;22529;-66
2023/09/06 01:40:17;;;;;;;10.20;4.20;;;;;;;14.69;90.70;101032.35;88670;276;137167;-66
2023/09/06 01:42:22;;;;;;;6.70;4.10;;;;;;;14.64;91.22;101033.13;88897;273;22530;-66
2023/09/06 01:44:24;;;;;;;3.70;3.40;;;;;;;14.57;91.86;101030.18;88871;276;138170;-66
2023/09/06 01:46:26;;;;;;;5.30;4.50;;;;;;;14.54;92.01;101031.05;88859;277;25076;-62
2023/09/06 01:48:28;;;;;;;7.60;4.10;;;;;;;14.56;91.96;101031.55;88732;272;136868;-65
2023/09/06 01:50:30;;;;;;;6.50;4.10;;;;;;;14.58;92.22;101031.07;90522;279;25089;-64
2023/09/06 01:52:36;;;;;;;4.80;3.40;;;;;;;14.67;91.49;101034.86;88513;279;136928;-65
2023/09/06 01:54:38;;;;;;;4.10;3.60;;;;;;;14.64;91.56;101033.83;88749;277;22566;-61
2023/09/06 01:56:41;;;;;;;3.90;3.50;;;;;;;14.73;91.30;101036.14;88593;273;136858;-70
2023/09/06 01:58:43;;;;;;;4.10;3.60;;;;;;;14.75;91.14;101039.36;88644;273;25170;-64
2023/09/06 02:00:46;;;;;;;4.60;3.60;;;;;;;14.78;90.76;101043.55;88539;279;137842;-66
2023/09/06 02:02:48;;;;;;;5.10;4.60;;;;;;;14.74;90.71;101041.09;88721;276;22786;-66
2023/09/06 02:04:50;;;;;;;3.60;3.30;;;;;;;14.69;91.29;101044.42;88512;273;138576;-64
2023/09/06 02:06:52;;;;;;;6.10;3.70;;;;;;;14.71;91.61;101040.05;88566;280;22543;-64
2023/09/06 02:08:53;;;;;;;3.70;3.30;;;;;;;14.78;91.34;101038.40;88573;272;137027;-65
2023/09/06 02:10:55;;;;;;;4.00;3.40;;;;;;;14.87;91.06;101037.83;88628;276;22570;-67
2023/09/06 02:12:57;;;;;;;7.20;4.00;;;;;;;14.93;90.57;101035.23;88555;272;137407;-69
2023/09/06 02:14:59;;;;;;;5.70;3.90;;;;;;;14.98;90.30;101035.60;88617;276;25169;-75
2023/09/06 02:17:01;;;;;;;4.30;3.70;;;;;;;15.04;89.80;101034.02;88357;274;137951;-72
2023/09/06 02:19:06;;;;;;;7.40;4.70;;;;;;;15.08;89.23;101031.87;89373;281;22522;-71
2023/09/06 02:21:09;;;;;;;3.90;3.60;;;;;;;15.11;88.95;101034.27;88519;278;137216;-73
2023/09/06 02:23:11;;;;;;;4.30;3.40;;;;;;;15.13;88.81;101033.10;88467;277;24059;-74
2023/09/06 02:25:14;;;;;;;5.20;4.40;;;;;;;15.13;88.83;101032.42;90944;280;138911;-72
2023/09/06 02:27:17;;;;;;;5.70;3.50;;;;;;;15.23;88.51;101033.08;91362;281;22511;-76
2023/09/06 02:29:18;;;;;;;3.80;3.10;;;;;;;15.30;88.34;101032.69;90561;280;138061;-81
2023/09/06 02:31:21;;;;;;;3.70;3.30;;;;;;;15.33;88.08;101036.25;88590;276;22621;-79
2023/09/06 02:33:25;;;;;;;5.30;3.30;;;;;;;15.33;88.01;101033.73;88506;281;137021;-77
2023/09/06 02:35:27;;;;;;;4.90;3.00;;;;;;;15.31;88.16;101035.49;88710;279;25114;-77
2023/09/06 02:37:29;;;;;;;3.80;3.30;;;;;;;15.27;88.13;101037.77;88585;273;136896;-80
2023/09/06 02:39:31;;;;;;;3.60;3.30;;;;;;;15.20;88.33;101031.20;88679;273;22535;-75
2023/09/06 02:41:33;;;;;;;3.70;3.30;;;;;;;15.19;88.34;101031.62;88502;280;138323;-73
2023/09/06 02:43:35;;;;;;;4.10;3.20;;;;;;;15.15;88.79;101033.46;88692;280;24016;-74
2023/09/06 02:45:37;;;;;;;3.90;3.60;;;;;;;15.12;89.44;101034.15;88574;280;137309;-74
2023/09/06 02:47:50;;;;;;;3.80;3.50;;;;;;;15.14;89.48;101032.89;88613;274;25542;-69
2023/09/06 02:49:56;;;;;;;5.40;3.60;;;;;;;15.16;89.70;101033.97;88449;280;136887;-72
2023/09/06 02:51:58;;;;;;;4.00;3.30;;;;;;;15.17;89.82;101034.59;88534;280;25216;-71
2023/09/06 02:54:02;;;;;;;3.30;3.00;;;;;;;15.17;89.59;101034.34;88489;277;136952;-74
2023/09/06 02:56:04;;;;;;;3.60;3.30;;;;;;;15.17;89.57;101034.05;88437;273;137315;-71
2023/09/06 02:58:07;;;;;;;5.40;3.60;;;;;;;15.15;89.60;101033.73;89876;281;24781;-73
2023/09/06 03:02:22;;;;;;;6.00;3.90;;;;;;;15.17;89.47;101034.02;88802;273;24049;-72
2023/09/06 03:04:24;;;;;;;3.70;3.40;;;;;;;15.20;89.00;101031.88;88423;272;138372;-71
2023/09/06 03:06:33;;;;;;;4.40;4.00;;;;;;;15.18;89.22;101031.70;88682;274;25207;-72
2023/09/06 03:08:38;;;;;;;3.20;2.90;;;;;;;15.18;89.36;101034.63;88723;278;136477;-73
2023/09/06 03:10:45;;;;;;;4.20;3.80;;;;;;;15.17;89.35;101033.80;88502;276;22633;-71
2023/09/06 03:14:59;;;;;;;5.90;3.50;;;;;;;15.02;89.83;101036.39;86754;305;604337;-70
2023/09/06 03:17:08;;;;;;;;;;;;;;;15.02;89.68;101034.41;87751;285;135822;-71
2023/09/06 03:19:13;;;;;;;5.00;4.10;;;;;;;14.93;90.12;101033.67;87759;291;27165;-71
2023/09/06 03:21:16;;;;;;;4.60;4.30;;;;;;;14.84;91.21;101034.34;87771;285;136023;-72
2023/09/06 03:23:19;;;;;;;4.70;3.50;;;;;;;14.79;91.29;101033.40;88183;285;22549;-71
2023/09/06 03:25:41;;;;;;;7.30;5.70;;;;;;;14.74;91.68;101031.60;87702;293;136005;-71
2023/09/06 03:27:44;;;;;;;6.20;4.30;;;;;;;14.72;92.87;101033.98;87688;291;22533;-72
2023/09/06 03:29:50;;;;;;;9.00;5.00;;;;;;;14.75;93.41;101035.45;87276;285;135723;-71
2023/09/06 03:31:55;;;;;;;10.50;4.70;;;;;;;14.76;93.48;101032.98;87943;291;22564;-74
2023/09/06 03:33:58;;;;;;;5.40;4.20;;;;;;;14.78;93.09;101031.69;88280;284;136183;-71
2023/09/06 03:36:07;;;;;;;7.10;4.90;;;;;;;14.77;92.82;101031.16;88336;288;136975;-71
2023/09/06 03:38:09;;;;;;;7.20;4.20;;;;;;;14.77;93.02;101031.79;88109;291;22622;-71
2023/09/06 03:40:25;;;;;;;4.90;4.50;;;;;;;14.75;93.18;101032.19;87710;289;136656;-70
2023/09/06 03:42:27;;;;;;;7.10;4.00;;;;;;;14.78;93.96;101035.70;88047;291;22950;-72
2023/09/06 03:44:31;;;;;;;8.50;4.10;;;;;;;14.80;93.62;101033.32;87840;291;136360;-69
2023/09/06 03:46:36;;;;;;;;;;;;;;;14.78;94.01;101037.08;88168;285;22648;-71
2023/09/06 03:48:38;;;;;;;4.90;4.30;;;;;;;14.80;94.16;101038.13;87953;287;122619;-72
2023/09/06 03:50:41;;;;;;;4.60;4.10;;;;;;;14.79;94.39;101035.38;88104;287;25096;-74
2023/09/06 03:52:43;;;;;;;5.80;5.10;;;;;;;14.82;94.73;101040.52;88091;286;136780;-72
2023/09/06 03:54:45;;;;;;;4.80;4.40;;;;;;;14.90;94.24;101041.80;88193;286;22579;-73
2023/09/06 03:56:47;;;;;;;5.60;5.00;;;;;;;14.98;93.92;101041.87;88040;285;136422;-74
2023/09/06 03:58:48;;;;;;;9.00;5.70;;;;;;;15.12;93.80;101044.08;88281;277;24167;-73
2023/09/06 04:00:51;;;;;;;6.90;4.70;;;;;;;15.36;93.39;101048.70;88014;286;136547;-73
2023/09/06 04:02:58;;;;;;;3.90;3.60;;;;;;;15.71;92.26;101048.65;88303;283;22540;-75
2023/09/06 04:05:00;;;;;;;7.40;4.30;;;;;;;16.08;90.46;101051.88;88561;286;136606;-75
2023/09/06 04:07:03;;;;;;;6.20;4.50;;;;;;;16.47;88.80;101053.86;88121;284;23034;-74
2023/09/06 04:09:07;;;;;;;7.20;3.90;;;;;;;16.98;85.99;101053.82;88122;277;135921;-71
2023/09/06 04:11:09;;;;;;;7.90;4.50;;;;;;;17.47;82.70;101055.45;88614;287;22786;-75
2023/09/06 04:13:15;;;;;;;5.00;3.80;;;;;;;17.87;79.29;101052.24;88172;286;135401;-73
2023/09/06 04:15:23;;;;;;;5.30;4.80;;;;;;;18.29;76.25;101056.58;88301;277;23854;-74
2023/09/06 04:17:27;;;;;;;7.80;3.30;;;;;;;18.70;73.73;101058.31;88261;275;135875;-73
2023/09/06 04:19:31;;;;;;;4.10;3.80;;;;;;;19.15;71.35;101055.90;88373;279;22584;-74
2023/09/06 04:21:32;;;;;;;4.50;3.60;;;;;;;19.69;68.59;101056.20;88194;281;135605;-68
2023/09/06 04:23:39;;;;;;;5.00;3.70;;;;;;;20.16;65.77;101051.84;88366;279;24052;-71
2023/09/06 04:25:44;;;;;;;4.80;3.70;;;;;;;20.66;63.23;101054.28;88147;277;136954;-74
2023/09/06 04:27:55;;;;;;;3.90;3.20;;;;;;;21.11;60.46;101053.09;88391;284;25185;-76
2023/09/06 04:29:58;;;;;;;5.30;3.70;;;;;;;21.40;58.19;101054.32;88566;279;135502;-71
2023/09/06 04:32:00;;;;;;;4.10;3.70;;;;;;;21.52;57.16;101052.77;88305;275;23712;-72
2023/09/06 04:34:04;;;;;;;5.20;4.30;;;;;;;21.68;56.51;101053.64;88279;283;135607;-73
2023/09/06 04:36:07;;;;;;;5.40;3.50;;;;;;;21.91;55.82;101055.55;88234;284;137390;-71
2023/09/06 04:38:11;;;;;;;5.70;4.10;;;;;;;22.20;54.95;101055.73;88354;283;22791;-70
2023/09/06 04:40:14;;;;;;;6.00;3.90;;;;;;;22.46;53.76;101055.92;88558;279;137235;-72
2023/09/06 04:42:17;;;;;;;7.60;4.30;;;;;;;22.55;52.85;101058.11;88523;277;22532;-71
2023/09/06 04:44:24;;;;;;;6.60;4.00;;;;;;;22.39;52.56;101059.04;88507;275;136028;-73
2023/09/06 04:46:27;;;;;;;4.60;4.10;;;;;;;21.98;53.25;101055.66;88883;283;22657;-75
2023/09/06 04:48:29;;;;;;;4.00;3.70;;;;;;;21.55;54.58;101060.46;88472;278;136074;-73
2023/09/06 04:50:33;;;;;;;6.20;5.00;;;;;;;21.17;56.11;101057.67;88553;283;22601;-78
2023/09/06 04:52:38;;;;;;;4.70;3.70;;;;;;;20.89;57.60;101050.77;88255;281;135910;-73
2023/09/06 04:54:40;;;;;;;5.70;4.70;;;;;;;20.96;58.19;101059.79;90203;284;23977;-75
2023/09/06 04:56:42;;;;;;;5.30;4.80;;;;;;;21.08;57.92;101062.70;88167;277;135970;-73
2023/09/06 04:58:45;;;;;;;7.40;4.40;;;;;;;21.26;57.62;101063.44;88401;277;22624;-76
2023/09/06 05:00:48;;;;;;;6.90;4.50;;;;;;;21.54;57.15;101065.27;88234;275;135900;-77
2023/09/06 05:02:54;;;;;;;5.80;4.70;;;;;;;21.89;55.78;101066.92;88422;276;25197;-76
2023/09/06 05:04:59;;;;;;;5.20;4.70;;;;;;;22.28;54.74;101064.23;88250;276;135979;-75
2023/09/06 05:07:01;;;;;;;6.30;4.70;;;;;;;22.59;53.58;101067.94;88221;277;25169;-76
2023/09/06 05:09:03;;;;;;;6.10;5.50;;;;;;;22.76;52.51;101062.52;88512;277;136881;-75
2023/09/06 05:11:06;;;;;;;5.60;5.00;;;;;;;22.89;51.79;101056.93;88293;284;24130;-74
2023/09/06 05:13:11;;;;;;;;;;;;;;;23.13;51.56;101050.27;88482;285;135519;-75
2023/09/06 05:15:15;;;;;;;7.20;3.80;;;;;;;23.50;49.97;101053.38;88573;276;22786;-76
2023/09/06 05:17:17;;;;;;;4.40;3.80;;;;;;;23.83;48.44;101051.34;88313;276;135889;-74
2023/09/06 05:19:21;;;;;;;8.00;4.60;;;;;;;24.10;47.38;101051.46;88270;281;23485;-75
2023/09/06 05:21:23;;;;;;;5.90;4.10;;;;;;;24.36;46.37;101047.88;88307;276;135821;-75
2023/09/06 05:23:25;;;;;;;8.60;4.50;;;;;;;24.61;45.22;101049.61;88385;276;22712;-74
2023/09/06 05:25:27;;;;;;;4.90;4.50;;;;;;;24.86;44.55;101052.84;88269;283;135810;-76
2023/09/06 05:27:28;;;;;;;6.10;3.80;;;;;;;25.01;44.33;101041.83;88251;277;24052;-74
2023/09/06 05:29:32;;;;;;;5.30;4.20;;;;;;;25.28;43.01;101049.70;88175;277;135830;-78
2023/09/06 05:31:34;;;;;;;5.00;4.20;;;;;;;25.43;42.50;101051.28;88676;284;22667;-73
2023/09/06 05:33:36;;;;;;;9.60;4.10;;;;;;;25.53;42.71;101052.45;88223;283;136255;-76
2023/09/06 05:35:38;;;;;;;6.60;4.40;;;;;;;25.48;42.57;101051.94;89269;277;22539;-73
2023/09/06 05:37:40;;;;;;;7.60;4.10;;;;;;;25.29;42.77;101050.20;88068;280;135848;-72
2023/09/06 05:39:44;;;;;;;5.90;4.60;;;;;;;25.15;43.10;101056.59;88190;276;23875;-74
2023/09/06 05:41:47;;;;;;;4.60;4.10;;;;;;;25.20;42.87;101055.89;88141;276;136103;-74
2023/09/06 05:43:49;;;;;;;5.40;3.70;;;;;;;25.35;41.84;101054.15;88730;283;22760;-73
2023/09/06 05:45:53;;;;;;;5.30;3.50;;;;;;;25.46;41.06;101056.64;88367;276;135659;-75
2023/09/06 05:47:55;;;;;;;4.70;4.10;;;;;;;25.48;40.84;101053.30;88228;283;26251;-74
2023/09/06 05:49:57;;;;;;;4.40;4.00;;;;;;;25.36;40.91;101053.06;88299;281;136147;-76
2023/09/06 05:52:00;;;;;;;4.70;3.60;;;;;;;25.09;41.38;101054.39;88744;277;24037;-76
2023/09/06 05:54:02;;;;;;;4.40;3.60;;;;;;;24.82;41.90;101053.47;88188;277;136669;-77
2023/09/06 05:56:05;;;;;;;6.90;3.70;;;;;;;24.64;42.42;101055.86;88132;281;135992;-75
2023/09/06 05:58:07;;;;;;;4.70;3.80;;;;;;;24.35;42.67;101052.66;88236;276;24050;-74
2023/09/06 06:00:15;;;;;;;5.60;4.80;;;;;;;24.17;43.40;101064.96;88216;277;136498;-75
2023/09/06 06:02:21;;;;;;;4.50;4.10;;;;;;;23.97;43.85;101063.02;88283;277;22554;-74
2023/09/06 06:04:23;;;;;;;5.20;3.90;;;;;;;23.74;44.44;101065.03;88160;281;135625;-74
2023/09/06 06:06:26;;;;;;;8.50;4.70;;;;;;;23.50;45.12;101065.69;88262;281;24238;-75
2023/09/06 06:08:30;;;;;;;6.30;3.50;;;;;;;23.45;45.60;101068.52;88251;283;136095;-74
2023/09/06 06:10:34;;;;;;;5.10;4.20;;;;;;;23.60;45.68;101071.45;88173;276;22599;-75
2023/09/06 06:12:38;;;;;;;9.70;7.20;;;;;;;23.86;45.38;101072.94;88203;276;136164;-75
2023/09/06 06:14:41;;;;;;;4.70;3.70;;;;;;;24.21;44.16;101069.07;88435;276;25189;-73
2023/09/06 06:16:43;;;;;;;3.50;2.60;;;;;;;24.50;42.79;101072.77;88200;276;135961;-76
2023/09/06 06:18:48;;;;;;;4.50;3.00;;;;;;;24.67;42.54;101072.27;88344;276;25038;-75
2023/09/06 06:20:49;;;;;;;9.50;3.00;;;;;;;24.86;41.99;101068.21;88483;284;137365;-73
2023/09/06 06:22:51;;;;;;;4.50;2.10;;;;;;;25.04;41.14;101068.39;88256;277;23017;-73
2023/09/06 06:24:53;;;;;;;3.90;1.60;;;;;;;25.17;40.73;101068.33;88256;276;137539;-76
2023/09/06 06:26:55;;;;;;;2.40;1.90;;;;;;;25.14;40.88;101068.48;88776;274;22603;-75
2023/09/06 06:28:57;;;;;;;3.70;1.80;;;;;;;24.82;40.87;101061.98;88660;275;135962;-76
2023/09/06 06:30:59;;;;;;;2.30;2.00;;;;;;;24.41;41.51;101072.09;88610;281;25118;-76
2023/09/06 06:33:01;;;;;;;3.10;2.00;;;;;;;23.79;42.55;101071.61;88536;277;136946;-76
2023/09/06 06:35:06;;;;;;;;;;;;;;;23.28;43.86;101073.23;88644;281;22525;-75
2023/09/06 06:37:08;;;;;;;2.70;1.40;;;;;;;22.93;44.95;101074.42;88587;273;122407;-75
2023/09/06 06:39:12;;;;;;;1.60;1.50;;;;;;;22.72;45.65;101074.00;88462;277;26035;-75
2023/09/06 06:41:20;;;;;;;4.50;1.80;;;;;;;22.60;46.36;101079.52;88459;277;136655;-75
2023/09/06 06:43:22;;;;;;;4.30;1.60;;;;;;;22.54;46.72;101082.05;88860;273;24164;-74
2023/09/06 06:45:24;;;;;;;3.10;2.00;;;;;;;22.45;47.00;101076.92;88473;281;137374;-76
2023/09/06 06:47:26;;;;;;;1.90;1.70;;;;;;;22.31;47.05;101073.97;88549;273;22545;-74
2023/09/06 06:49:28;;;;;;;2.20;1.70;;;;;;;22.18;47.49;101072.38;88700;274;136279;-74
2023/09/06 06:51:35;;;;;;;1.30;1.20;;;;;;;22.11;47.45;101075.53;88499;275;22545;-76
2023/09/06 06:53:39;;;;;;;4.70;1.70;;;;;;;22.01;47.55;101076.60;88312;281;136316;-76
2023/09/06 06:55:42;;;;;;;4.00;2.50;;;;;;;21.97;47.67;101076.65;88549;277;22548;-77
2023/09/06 06:57:44;;;;;;;1.90;1.40;;;;;;;22.01;48.07;101077.95;88623;274;136374;-75
2023/09/06 06:59:46;;;;;;;2.40;2.20;;;;;;;22.09;48.02;101076.58;88560;274;25321;-75
2023/09/06 07:01:48;;;;;;;4.10;2.70;;;;;;;22.14;47.91;101075.63;88442;281;136057;-75
2023/09/06 07:03:51;;;;;;;2.20;2.00;;;;;;;22.10;47.95;101071.87;88662;277;25137;-75
2023/09/06 07:05:53;;;;;;;4.00;2.30;;;;;;;22.07;47.96;101065.30;88561;277;136313;-75
2023/09/06 07:07:54;;;;;;;1.70;1.40;;;;;;;22.09;48.22;101065.44;88561;281;22928;-77
2023/09/06 07:09:56;;;;;;;3.70;1.60;;;;;;;22.15;47.84;101064.27;88545;273;138566;-75
2023/09/06 07:11:58;;;;;;;10.20;2.00;;;;;;;22.15;48.45;101064.17;88645;280;22530;-77
2023/09/06 07:14:00;;;;;;;3.00;1.60;;;;;;;22.16;48.11;101064.42;88540;281;136515;-75
2023/09/06 07:16:03;;;;;;;6.20;2.50;;;;;;;22.10;47.83;101065.84;88821;277;24184;-79
2023/09/06 07:18:08;;;;;;;9.20;4.60;;;;;;;22.12;48.19;101060.55;88536;282;22542;-75
2023/09/06 07:20:12;;;;;;;4.00;1.80;;;;;;;22.13;48.56;101062.89;88491;274;136286;-77
2023/09/06 07:22:14;;;;;;;4.50;3.20;;;;;;;22.14;48.11;101059.92;88543;279;25387;-77
2023/09/06 07:24:16;;;;;;;2.80;1.70;;;;;;;22.14;48.26;101057.23;88676;277;137438;-75
2023/09/06 07:26:18;;;;;;;2.50;2.30;;;;;;;22.22;47.94;101057.01;88383;281;22542;-72
2023/09/06 07:28:22;;;;;;;3.10;2.10;;;;;;;22.28;47.90;101053.23;88562;281;137487;-73
2023/09/06 07:30:27;;;;;;;2.50;2.30;;;;;;;22.38;48.04;101047.23;88719;277;24027;-73
2023/09/06 07:32:29;;;;;;;4.30;1.30;;;;;;;22.47;47.68;101043.29;88505;281;136376;-75
2023/09/06 07:34:32;;;;;;;2.40;1.60;;;;;;;22.56;47.74;101045.35;88460;277;22504;-76
2023/09/06 07:36:34;;;;;;;3.10;1.30;;;;;;;22.66;47.57;101040.60;88496;281;136190;-76
2023/09/06 07:38:35;;;;;;;2.20;1.30;;;;;;;22.74;47.29;101040.38;88461;274;25122;-74
2023/09/06 07:40:37;;;;;;;7.00;1.10;;;;;;;22.75;47.02;101038.55;88605;274;137254;-75
2023/09/06 07:42:39;;;;;;;4.00;1.70;;;;;;;22.76;47.56;101041.75;88840;282;22772;-76
2023/09/06 07:44:41;;;;;;;3.00;1.40;;;;;;;22.81;47.51;101040.23;88627;277;136219;-74
2023/09/06 07:46:48;;;;;;;1.90;1.60;;;;;;;22.86;47.61;101044.17;88687;275;22478;-73
2023/09/06 07:48:51;;;;;;;2.60;1.40;;;;;;;22.90;47.56;101039.81;88682;277;136194;-76
2023/09/06 07:50:53;;;;;;;4.30;1.80;;;;;;;22.95;47.38;101044.05;88675;279;22535;-77
2023/09/06 07:52:55;;;;;;;6.70;2.40;;;;;;;23.02;47.68;101040.67;88667;281;136435;-74
2023/09/06 07:54:58;;;;;;;1.40;1.20;;;;;;;23.09;47.19;101035.77;88839;273;22625;-74
2023/09/06 07:57:00;;;;;;;3.80;1.50;;;;;;;23.13;47.54;101037.55;88837;273;136302;-75
2023/09/06 07:59:02;;;;;;;3.30;1.50;;;;;;;23.21;47.31;101038.09;88814;282;22533;-76
2023/09/06 08:01:04;;;;;;;4.40;1.90;;;;;;;23.31;47.31;101036.60;88347;275;136380;-75
2023/09/06 08:03:19;;;;;;;2.60;1.70;;;;;;;23.42;47.25;101035.72;88546;274;22539;-75
2023/09/06 08:05:22;;;;;;;4.10;2.00;;;;;;;23.55;46.76;101033.19;88747;273;137759;-74
2023/09/06 08:07:24;;;;;;;2.00;1.40;;;;;;;23.60;46.51;101036.00;88573;273;22593;-75
2023/09/06 08:09:26;;;;;;;2.50;1.40;;;;;;;23.55;46.64;101030.11;88711;275;137999;-75
2023/09/06 08:11:27;;;;;;;1.60;1.50;;;;;;;23.53;46.71;101037.79;88488;282;25159;-75
2023/09/06 08:13:29;;;;;;;4.20;2.10;;;;;;;23.50;47.06;101028.73;88346;281;136206;-75
2023/09/06 08:15:37;;;;;;;3.20;1.80;;;;;;;23.54;46.87;101032.84;88564;281;24049;-76
2023/09/06 08:17:39;;;;;;;1.60;1.30;;;;;;;23.47;47.18;101032.30;88549;274;136354;-75
2023/09/06 08:19:41;;;;;;;3.50;2.10;;;;;;;23.38;47.53;101030.89;88475;274;22543;-73
2023/09/06 08:21:43;;;;;;;4.50;1.40;;;;;;;23.30;47.73;101029.46;88773;274;136482;-75
2023/09/06 08:23:45;;;;;;;2.10;1.80;;;;;;;23.28;47.84;101029.65;88465;281;22535;-76
2023/09/06 08:25:47;;;;;;;2.30;1.60;;;;;;;23.27;47.78;101032.31;88378;282;136484;-76
2023/09/06 08:27:53;;;;;;;3.30;2.50;;;;;;;23.26;47.96;101031.11;88361;278;23869;-74
2023/09/06 08:29:55;;;;;;;2.80;1.70;;;;;;;23.28;48.29;101031.17;88385;281;135828;-76
2023/09/06 08:31:57;;;;;;;2.30;2.10;;;;;;;23.31;48.14;101028.55;88428;274;25305;-77
2023/09/06 08:33:59;;;;;;;3.80;2.30;;;;;;;23.34;47.59;101024.44;88390;277;136009;-77
2023/09/06 08:36:01;;;;;;;2.50;1.60;;;;;;;23.37;47.26;101022.89;88559;281;22614;-74
2023/09/06 08:38:04;;;;;;;2.80;2.00;;;;;;;23.40;47.23;101021.83;91370;281;22398;-76
2023/09/06 08:40:07;;;;;;;2.60;1.90;;;;;;;23.42;47.40;101022.72;88850;281;137115;-74
2023/09/06 08:42:09;;;;;;;1.20;1.10;;;;;;;23.47;47.36;101021.67;89263;278;22613;-76
2023/09/06 08:44:13;;;;;;;2.10;1.80;;;;;;;23.49;46.87;101020.46;88566;279;136483;-76
2023/09/06 08:46:27;;;;;;;3.40;1.40;;;;;;;23.51;46.64;101015.07;88656;274;25233;-76
2023/09/06 08:48:30;;;;;;;2.70;1.30;;;;;;;23.50;46.44;101016.38;88430;281;136915;-66
2023/09/06 08:50:33;;;;;;;3.80;1.60;;;;;;;23.46;46.62;101025.53;88720;279;22784;-81
2023/09/06 08:52:39;;;;;;;6.10;1.50;;;;;;;23.44;46.70;101019.31;88844;273;136598;-74
2023/09/06 08:54:45;;;;;;;4.30;2.50;;;;;;;23.45;46.78;101018.55;89028;272;24797;-73
2023/09/06 08:56:47;;;;;;;3.80;1.30;;;;;;;23.46;46.95;101016.34;88729;273;139109;-72
2023/09/06 08:58:49;;;;;;;2.70;0.90;;;;;;;23.46;46.68;101022.21;89461;281;24018;-77
2023/09/06 09:00:52;;;;;;;1.60;1.00;;;;;;;23.46;46.48;101016.00;89227;280;137298;-71
2023/09/06 09:02:54;;;;;;;1.70;1.30;;;;;;;23.45;46.27;101014.59;89239;280;23336;-72
2023/09/06 09:04:56;;;;;;;3.00;2.20;;;;;;;23.44;46.78;101019.09;88756;273;136036;-75
2023/09/06 09:07:18;;;;;;;1.40;1.30;;;;;;;23.45;46.17;101012.69;88926;273;25093;-77
2023/09/06 09:09:20;;;;;;;1.30;1.20;;;;;;;23.46;46.35;101015.04;88302;280;137459;-76
2023/09/06 09:11:22;;;;;;;3.60;1.60;;;;;;;23.51;46.67;101012.80;88865;282;22544;-73
2023/09/06 09:13:24;;;;;;;1.30;1.10;;;;;;;23.59;46.98;101010.64;88673;277;136226;-71
2023/09/06 09:15:25;;;;;;;2.00;1.30;;;;;;;23.63;45.74;101004.23;88847;275;25550;-84
2023/09/06 09:17:29;;;;;;;2.20;1.00;;;;;;;23.63;45.87;101005.27;88574;275;136366;-76
2023/09/06 09:19:31;;;;;;;1.50;1.00;;;;;;;23.61;45.88;101007.05;88846;273;22612;-74
2023/09/06 09:21:40;;;;;;;2.80;1.20;;;;;;;23.69;45.55;101009.23;89121;277;137046;-73
2023/09/06 09:23:54;;;;;;;3.00;1.60;;;;;;;23.73;45.09;101006.00;88774;274;24164;-72
2023/09/06 09:25:58;;;;;;;2.20;1.40;;;;;;;23.72;45.14;101005.79;89025;274;135836;-68
2023/09/06 09:27:59;;;;;;;1.20;0.90;;;;;;;23.71;45.00;101004.03;89295;281;25236;-73
2023/09/06 09:30:07;;;;;;;3.60;1.20;;;;;;;23.68;45.23;100999.83;88732;282;24473;-77
2023/09/06 09:32:09;;;;;;;6.80;1.20;;;;;;;23.53;45.38;100985.71;89616;275;136129;-79
2023/09/06 09:34:12;;;;;;;1.30;1.20;;;;;;;23.61;45.64;100995.56;89750;279;22651;-77
2023/09/06 09:36:17;;;;;;;3.40;1.50;;;;;;;23.67;45.92;100990.52;89642;274;136277;-79
2023/09/06 09:38:19;;;;;;;2.00;1.40;;;;;;;23.76;45.94;100996.51;89516;280;22610;-72
2023/09/06 09:40:32;;;;;;;1.90;1.10;;;;;;;23.81;45.25;100996.48;88902;280;141074;-71
2023/09/06 09:42:35;;;;;;;1.90;1.00;;;;;;;23.83;44.94;100994.59;88911;282;25233;-74